sensor_id;sensor_type;location;lat;lon;timestamp;P1;durP1;ratioP1;P2;durP2;ratioP2
55493;SDS011;41355;50.390;19.096;2022-10-19T00:00:19;10.77;;;5.80;;
55493;SDS011;41355;50.390;19.096;2022-10-19T00:02:45;8.85;;;4.97;;
55493;SDS011;41355;50.390;19.096;2022-10-19T00:05:11;13.43;;;6.82;;
55493;SDS011;41355;50.390;19.096;2022-10-19T00:07:37;10.40;;;5.45;;
55493;SDS011;41355;50.390;19.096;2022-10-19T00:10:03;9.18;;;4.90;;
55493;SDS011;41355;50.390;19.096;2022-10-19T00:12:29;7.60;;;4.35;;
55493;SDS011;41355;50.390;19.096;2022-10-19T00:14:56;10.20;;;5.45;;
55493;SDS011;41355;50.390;19.096;2022-10-19T00:17:22;13.05;;;6.28;;
55493;SDS011;41355;50.390;19.096;2022-10-19T00:19:48;12.27;;;6.03;;
55493;SDS011;41355;50.390;19.096;2022-10-19T00:22:14;14.38;;;6.53;;
55493;SDS011;41355;50.390;19.096;2022-10-19T00:24:40;20.88;;;9.07;;
55493;SDS011;41355;50.390;19.096;2022-10-19T00:27:06;16.48;;;8.48;;
55493;SDS011;41355;50.390;19.096;2022-10-19T00:29:32;37.08;;;16.88;;
55493;SDS011;41355;50.390;19.096;2022-10-19T00:31:58;24.38;;;11.55;;
55493;SDS011;41355;50.390;19.096;2022-10-19T00:34:24;24.52;;;12.77;;
55493;SDS011;41355;50.390;19.096;2022-10-19T00:36:51;26.90;;;13.95;;
55493;SDS011;41355;50.390;19.096;2022-10-19T00:39:17;28.00;;;13.52;;
55493;SDS011;41355;50.390;19.096;2022-10-19T00:41:46;24.67;;;12.25;;
55493;SDS011;41355;50.390;19.096;2022-10-19T00:46:43;23.65;;;11.98;;
55493;SDS011;41355;50.390;19.096;2022-10-19T00:49:11;20.23;;;9.48;;
55493;SDS011;41355;50.390;19.096;2022-10-19T00:51:40;17.88;;;9.45;;
55493;SDS011;41355;50.390;19.096;2022-10-19T00:54:06;17.67;;;8.88;;
55493;SDS011;41355;50.390;19.096;2022-10-19T00:56:34;17.92;;;9.18;;
55493;SDS011;41355;50.390;19.096;2022-10-19T00:59:03;19.20;;;9.55;;
55493;SDS011;41355;50.390;19.096;2022-10-19T01:01:29;15.65;;;7.60;;
55493;SDS011;41355;50.390;19.096;2022-10-19T01:03:56;16.70;;;8.25;;
55493;SDS011;41355;50.390;19.096;2022-10-19T01:06:22;22.08;;;9.27;;
55493;SDS011;41355;50.390;19.096;2022-10-19T01:08:48;17.67;;;8.43;;
55493;SDS011;41355;50.390;19.096;2022-10-19T01:13:58;18.23;;;9.45;;
55493;SDS011;41355;50.390;19.096;2022-10-19T01:19:00;17.45;;;8.63;;
55493;SDS011;41355;50.390;19.096;2022-10-19T01:21:28;12.05;;;6.40;;
55493;SDS011;41355;50.390;19.096;2022-10-19T01:26:40;17.38;;;9.18;;
55493;SDS011;41355;50.390;19.096;2022-10-19T01:34:28;19.00;;;8.63;;
55493;SDS011;41355;50.390;19.096;2022-10-19T01:44:49;16.63;;;8.38;;
55493;SDS011;41355;50.390;19.096;2022-10-19T01:47:25;16.80;;;7.95;;
55493;SDS011;41355;50.390;19.096;2022-10-19T01:49:53;14.82;;;8.20;;
55493;SDS011;41355;50.390;19.096;2022-10-19T01:52:20;14.55;;;7.18;;
55493;SDS011;41355;50.390;19.096;2022-10-19T01:54:50;11.80;;;5.88;;
55493;SDS011;41355;50.390;19.096;2022-10-19T01:57:21;13.73;;;6.28;;
55493;SDS011;41355;50.390;19.096;2022-10-19T01:59:48;12.70;;;6.43;;
55493;SDS011;41355;50.390;19.096;2022-10-19T02:02:15;12.70;;;6.70;;
55493;SDS011;41355;50.390;19.096;2022-10-19T02:04:41;12.25;;;6.63;;
55493;SDS011;41355;50.390;19.096;2022-10-19T02:07:07;12.60;;;6.80;;
55493;SDS011;41355;50.390;19.096;2022-10-19T02:09:34;12.77;;;7.05;;
55493;SDS011;41355;50.390;19.096;2022-10-19T02:12:02;11.35;;;5.70;;
55493;SDS011;41355;50.390;19.096;2022-10-19T02:14:30;13.23;;;5.57;;
55493;SDS011;41355;50.390;19.096;2022-10-19T02:19:26;12.43;;;6.15;;
55493;SDS011;41355;50.390;19.096;2022-10-19T02:21:52;10.13;;;5.70;;
55493;SDS011;41355;50.390;19.096;2022-10-19T02:24:18;13.70;;;6.05;;
55493;SDS011;41355;50.390;19.096;2022-10-19T02:26:44;13.40;;;7.28;;
55493;SDS011;41355;50.390;19.096;2022-10-19T02:29:11;17.05;;;7.25;;
55493;SDS011;41355;50.390;19.096;2022-10-19T02:31:38;13.55;;;7.22;;
55493;SDS011;41355;50.390;19.096;2022-10-19T02:34:04;14.05;;;7.85;;
55493;SDS011;41355;50.390;19.096;2022-10-19T02:36:31;15.15;;;6.70;;
55493;SDS011;41355;50.390;19.096;2022-10-19T02:38:57;15.60;;;7.63;;
55493;SDS011;41355;50.390;19.096;2022-10-19T02:41:26;13.77;;;7.03;;
55493;SDS011;41355;50.390;19.096;2022-10-19T02:43:58;11.85;;;5.82;;
55493;SDS011;41355;50.390;19.096;2022-10-19T02:46:37;13.65;;;6.50;;
55493;SDS011;41355;50.390;19.096;2022-10-19T02:49:05;14.82;;;7.05;;
55493;SDS011;41355;50.390;19.096;2022-10-19T02:51:36;10.85;;;6.03;;
55493;SDS011;41355;50.390;19.096;2022-10-19T02:54:03;14.93;;;7.38;;
55493;SDS011;41355;50.390;19.096;2022-10-19T02:56:30;14.20;;;7.65;;
55493;SDS011;41355;50.390;19.096;2022-10-19T02:58:56;17.33;;;7.75;;
55493;SDS011;41355;50.390;19.096;2022-10-19T03:01:22;18.33;;;8.10;;
55493;SDS011;41355;50.390;19.096;2022-10-19T03:03:48;16.25;;;8.13;;
55493;SDS011;41355;50.390;19.096;2022-10-19T03:06:14;15.73;;;7.07;;
55493;SDS011;41355;50.390;19.096;2022-10-19T03:08:40;11.45;;;6.35;;
55493;SDS011;41355;50.390;19.096;2022-10-19T03:11:06;15.68;;;8.07;;
55493;SDS011;41355;50.390;19.096;2022-10-19T03:13:32;10.45;;;4.95;;
55493;SDS011;41355;50.390;19.096;2022-10-19T03:16:04;15.82;;;8.48;;
55493;SDS011;41355;50.390;19.096;2022-10-19T03:18:30;17.83;;;8.32;;
55493;SDS011;41355;50.390;19.096;2022-10-19T03:21:00;23.73;;;9.63;;
55493;SDS011;41355;50.390;19.096;2022-10-19T03:23:28;17.75;;;7.90;;
55493;SDS011;41355;50.390;19.096;2022-10-19T03:25:54;17.63;;;8.65;;
55493;SDS011;41355;50.390;19.096;2022-10-19T03:28:20;18.92;;;9.00;;
55493;SDS011;41355;50.390;19.096;2022-10-19T03:30:46;21.55;;;9.18;;
55493;SDS011;41355;50.390;19.096;2022-10-19T03:33:12;17.45;;;9.23;;
55493;SDS011;41355;50.390;19.096;2022-10-19T03:35:38;19.15;;;9.02;;
55493;SDS011;41355;50.390;19.096;2022-10-19T03:38:04;18.90;;;9.20;;
55493;SDS011;41355;50.390;19.096;2022-10-19T03:40:30;18.90;;;9.50;;
55493;SDS011;41355;50.390;19.096;2022-10-19T03:42:57;18.13;;;8.35;;
55493;SDS011;41355;50.390;19.096;2022-10-19T03:45:23;17.83;;;7.60;;
55493;SDS011;41355;50.390;19.096;2022-10-19T03:47:49;16.85;;;7.72;;
55493;SDS011;41355;50.390;19.096;2022-10-19T03:50:15;19.33;;;9.35;;
55493;SDS011;41355;50.390;19.096;2022-10-19T03:52:42;17.92;;;9.05;;
55493;SDS011;41355;50.390;19.096;2022-10-19T03:55:08;20.90;;;10.10;;
55493;SDS011;41355;50.390;19.096;2022-10-19T03:57:35;17.02;;;8.50;;
55493;SDS011;41355;50.390;19.096;2022-10-19T04:00:01;13.25;;;6.90;;
55493;SDS011;41355;50.390;19.096;2022-10-19T04:02:27;19.35;;;8.68;;
55493;SDS011;41355;50.390;19.096;2022-10-19T04:04:54;25.38;;;10.35;;
55493;SDS011;41355;50.390;19.096;2022-10-19T04:07:20;21.50;;;9.95;;
55493;SDS011;41355;50.390;19.096;2022-10-19T04:09:46;13.85;;;6.78;;
55493;SDS011;41355;50.390;19.096;2022-10-19T04:12:12;22.15;;;9.32;;
55493;SDS011;41355;50.390;19.096;2022-10-19T04:14:38;19.15;;;8.75;;
55493;SDS011;41355;50.390;19.096;2022-10-19T04:17:04;21.55;;;10.13;;
55493;SDS011;41355;50.390;19.096;2022-10-19T04:19:30;20.85;;;8.70;;
55493;SDS011;41355;50.390;19.096;2022-10-19T04:21:56;18.33;;;9.18;;
55493;SDS011;41355;50.390;19.096;2022-10-19T04:24:22;22.40;;;9.77;;
55493;SDS011;41355;50.390;19.096;2022-10-19T04:26:49;20.30;;;10.07;;
55493;SDS011;41355;50.390;19.096;2022-10-19T04:29:16;19.90;;;9.30;;
55493;SDS011;41355;50.390;19.096;2022-10-19T04:31:43;21.52;;;9.98;;
55493;SDS011;41355;50.390;19.096;2022-10-19T04:34:09;17.58;;;8.90;;
55493;SDS011;41355;50.390;19.096;2022-10-19T04:36:35;25.60;;;10.70;;
55493;SDS011;41355;50.390;19.096;2022-10-19T04:39:02;23.45;;;10.43;;
55493;SDS011;41355;50.390;19.096;2022-10-19T04:41:29;26.23;;;10.68;;
55493;SDS011;41355;50.390;19.096;2022-10-19T04:43:56;27.90;;;9.65;;
55493;SDS011;41355;50.390;19.096;2022-10-19T04:46:22;19.83;;;10.75;;
55493;SDS011;41355;50.390;19.096;2022-10-19T04:48:49;24.08;;;10.30;;
55493;SDS011;41355;50.390;19.096;2022-10-19T04:51:15;21.75;;;9.77;;
55493;SDS011;41355;50.390;19.096;2022-10-19T04:53:41;21.08;;;9.55;;
55493;SDS011;41355;50.390;19.096;2022-10-19T04:56:10;29.05;;;10.55;;
55493;SDS011;41355;50.390;19.096;2022-10-19T04:58:36;25.83;;;11.35;;
55493;SDS011;41355;50.390;19.096;2022-10-19T05:01:15;29.38;;;10.90;;
55493;SDS011;41355;50.390;19.096;2022-10-19T05:03:42;26.10;;;11.63;;
55493;SDS011;41355;50.390;19.096;2022-10-19T05:06:08;25.83;;;11.32;;
55493;SDS011;41355;50.390;19.096;2022-10-19T05:08:35;28.45;;;11.43;;
55493;SDS011;41355;50.390;19.096;2022-10-19T05:11:08;26.33;;;12.27;;
55493;SDS011;41355;50.390;19.096;2022-10-19T05:13:34;25.15;;;10.02;;
55493;SDS011;41355;50.390;19.096;2022-10-19T05:16:01;28.25;;;12.77;;
55493;SDS011;41355;50.390;19.096;2022-10-19T05:18:28;28.15;;;11.65;;
55493;SDS011;41355;50.390;19.096;2022-10-19T05:21:00;39.85;;;13.98;;
55493;SDS011;41355;50.390;19.096;2022-10-19T05:23:27;47.08;;;21.05;;
55493;SDS011;41355;50.390;19.096;2022-10-19T05:28:34;34.67;;;15.10;;
55493;SDS011;41355;50.390;19.096;2022-10-19T05:31:04;41.38;;;15.63;;
55493;SDS011;41355;50.390;19.096;2022-10-19T05:33:30;36.63;;;15.48;;
55493;SDS011;41355;50.390;19.096;2022-10-19T05:35:56;35.28;;;14.93;;
55493;SDS011;41355;50.390;19.096;2022-10-19T05:38:22;34.90;;;13.98;;
55493;SDS011;41355;50.390;19.096;2022-10-19T05:40:48;35.35;;;15.32;;
55493;SDS011;41355;50.390;19.096;2022-10-19T05:43:14;38.97;;;15.65;;
55493;SDS011;41355;50.390;19.096;2022-10-19T05:45:41;41.42;;;16.70;;
55493;SDS011;41355;50.390;19.096;2022-10-19T05:48:07;36.85;;;14.75;;
55493;SDS011;41355;50.390;19.096;2022-10-19T05:50:33;39.80;;;15.57;;
55493;SDS011;41355;50.390;19.096;2022-10-19T05:52:59;38.42;;;13.85;;
55493;SDS011;41355;50.390;19.096;2022-10-19T05:55:25;28.40;;;12.02;;
55493;SDS011;41355;50.390;19.096;2022-10-19T05:57:51;34.75;;;14.27;;
55493;SDS011;41355;50.390;19.096;2022-10-19T06:00:17;35.50;;;13.70;;
55493;SDS011;41355;50.390;19.096;2022-10-19T06:02:43;42.92;;;15.55;;
55493;SDS011;41355;50.390;19.096;2022-10-19T06:05:09;45.53;;;16.50;;
55493;SDS011;41355;50.390;19.096;2022-10-19T06:07:35;33.75;;;14.40;;
55493;SDS011;41355;50.390;19.096;2022-10-19T06:10:01;35.50;;;16.50;;
55493;SDS011;41355;50.390;19.096;2022-10-19T06:12:27;32.08;;;13.55;;
55493;SDS011;41355;50.390;19.096;2022-10-19T06:14:53;36.35;;;13.75;;
55493;SDS011;41355;50.390;19.096;2022-10-19T06:17:19;35.67;;;15.75;;
55493;SDS011;41355;50.390;19.096;2022-10-19T06:19:45;36.00;;;15.50;;
55493;SDS011;41355;50.390;19.096;2022-10-19T06:22:11;39.38;;;15.60;;
55493;SDS011;41355;50.390;19.096;2022-10-19T06:24:37;32.17;;;14.23;;
55493;SDS011;41355;50.390;19.096;2022-10-19T06:27:03;35.95;;;15.25;;
55493;SDS011;41355;50.390;19.096;2022-10-19T06:29:30;33.05;;;15.02;;
55493;SDS011;41355;50.390;19.096;2022-10-19T06:31:56;32.08;;;12.82;;
55493;SDS011;41355;50.390;19.096;2022-10-19T06:34:24;25.70;;;12.00;;
55493;SDS011;41355;50.390;19.096;2022-10-19T06:36:50;31.95;;;13.57;;
55493;SDS011;41355;50.390;19.096;2022-10-19T06:39:16;24.15;;;10.57;;
55493;SDS011;41355;50.390;19.096;2022-10-19T06:41:42;19.92;;;8.85;;
55493;SDS011;41355;50.390;19.096;2022-10-19T06:44:08;32.92;;;13.25;;
55493;SDS011;41355;50.390;19.096;2022-10-19T06:46:34;28.23;;;13.15;;
55493;SDS011;41355;50.390;19.096;2022-10-19T06:49:00;29.13;;;12.00;;
55493;SDS011;41355;50.390;19.096;2022-10-19T06:51:27;29.20;;;12.70;;
55493;SDS011;41355;50.390;19.096;2022-10-19T06:53:53;23.90;;;11.23;;
55493;SDS011;41355;50.390;19.096;2022-10-19T06:56:19;26.95;;;12.60;;
55493;SDS011;41355;50.390;19.096;2022-10-19T06:58:46;20.33;;;10.52;;
55493;SDS011;41355;50.390;19.096;2022-10-19T07:01:13;28.15;;;11.60;;
55493;SDS011;41355;50.390;19.096;2022-10-19T07:03:39;25.90;;;10.10;;
55493;SDS011;41355;50.390;19.096;2022-10-19T07:06:08;23.23;;;10.40;;
55493;SDS011;41355;50.390;19.096;2022-10-19T07:08:34;17.42;;;8.07;;
55493;SDS011;41355;50.390;19.096;2022-10-19T07:11:02;24.38;;;10.55;;
55493;SDS011;41355;50.390;19.096;2022-10-19T07:13:28;18.60;;;7.18;;
55493;SDS011;41355;50.390;19.096;2022-10-19T07:15:56;20.58;;;9.65;;
55493;SDS011;41355;50.390;19.096;2022-10-19T07:18:22;17.27;;;8.45;;
55493;SDS011;41355;50.390;19.096;2022-10-19T07:20:58;21.27;;;8.95;;
55493;SDS011;41355;50.390;19.096;2022-10-19T07:23:25;21.52;;;9.60;;
55493;SDS011;41355;50.390;19.096;2022-10-19T07:25:51;20.05;;;8.57;;
55493;SDS011;41355;50.390;19.096;2022-10-19T07:28:19;19.90;;;9.18;;
55493;SDS011;41355;50.390;19.096;2022-10-19T07:30:45;19.63;;;8.20;;
55493;SDS011;41355;50.390;19.096;2022-10-19T07:33:12;22.13;;;8.45;;
55493;SDS011;41355;50.390;19.096;2022-10-19T07:35:38;24.35;;;9.30;;
55493;SDS011;41355;50.390;19.096;2022-10-19T07:38:04;15.82;;;7.10;;
55493;SDS011;41355;50.390;19.096;2022-10-19T07:40:30;23.42;;;9.45;;
55493;SDS011;41355;50.390;19.096;2022-10-19T07:42:56;13.57;;;6.57;;
55493;SDS011;41355;50.390;19.096;2022-10-19T07:45:22;17.60;;;7.43;;
55493;SDS011;41355;50.390;19.096;2022-10-19T07:47:48;17.45;;;6.10;;
55493;SDS011;41355;50.390;19.096;2022-10-19T07:50:14;12.98;;;6.22;;
55493;SDS011;41355;50.390;19.096;2022-10-19T07:52:40;15.30;;;6.53;;
55493;SDS011;41355;50.390;19.096;2022-10-19T07:55:06;13.32;;;6.18;;
55493;SDS011;41355;50.390;19.096;2022-10-19T07:57:32;9.35;;;4.70;;
55493;SDS011;41355;50.390;19.096;2022-10-19T07:59:58;11.27;;;5.35;;
55493;SDS011;41355;50.390;19.096;2022-10-19T08:02:24;9.00;;;4.38;;
55493;SDS011;41355;50.390;19.096;2022-10-19T08:04:50;13.25;;;4.90;;
55493;SDS011;41355;50.390;19.096;2022-10-19T08:07:16;9.85;;;3.90;;
55493;SDS011;41355;50.390;19.096;2022-10-19T08:09:42;7.95;;;3.58;;
55493;SDS011;41355;50.390;19.096;2022-10-19T08:12:08;8.45;;;3.50;;
55493;SDS011;41355;50.390;19.096;2022-10-19T08:14:34;10.88;;;3.97;;
55493;SDS011;41355;50.390;19.096;2022-10-19T08:17:01;9.52;;;3.75;;
55493;SDS011;41355;50.390;19.096;2022-10-19T08:19:27;9.02;;;4.00;;
55493;SDS011;41355;50.390;19.096;2022-10-19T08:21:53;6.60;;;3.10;;
55493;SDS011;41355;50.390;19.096;2022-10-19T08:24:19;8.95;;;3.45;;
55493;SDS011;41355;50.390;19.096;2022-10-19T08:26:45;6.68;;;3.15;;
55493;SDS011;41355;50.390;19.096;2022-10-19T08:29:13;9.35;;;3.80;;
55493;SDS011;41355;50.390;19.096;2022-10-19T08:31:40;7.78;;;3.20;;
55493;SDS011;41355;50.390;19.096;2022-10-19T08:34:06;9.68;;;3.63;;
55493;SDS011;41355;50.390;19.096;2022-10-19T08:36:32;8.15;;;2.72;;
55493;SDS011;41355;50.390;19.096;2022-10-19T08:39:00;10.65;;;3.47;;
55493;SDS011;41355;50.390;19.096;2022-10-19T08:46:47;7.55;;;3.35;;
55493;SDS011;41355;50.390;19.096;2022-10-19T08:49:16;10.02;;;3.08;;
55493;SDS011;41355;50.390;19.096;2022-10-19T08:51:43;9.25;;;3.47;;
55493;SDS011;41355;50.390;19.096;2022-10-19T08:54:14;7.13;;;3.20;;
55493;SDS011;41355;50.390;19.096;2022-10-19T08:56:47;7.80;;;3.45;;
55493;SDS011;41355;50.390;19.096;2022-10-19T08:59:36;13.20;;;3.72;;
55493;SDS011;41355;50.390;19.096;2022-10-19T09:02:09;10.13;;;2.33;;
55493;SDS011;41355;50.390;19.096;2022-10-19T09:04:39;7.47;;;2.85;;
55493;SDS011;41355;50.390;19.096;2022-10-19T09:09:35;6.97;;;2.65;;
55493;SDS011;41355;50.390;19.096;2022-10-19T09:12:03;6.90;;;3.30;;
55493;SDS011;41355;50.390;19.096;2022-10-19T09:14:31;6.28;;;2.97;;
55493;SDS011;41355;50.390;19.096;2022-10-19T09:17:02;4.18;;;1.73;;
55493;SDS011;41355;50.390;19.096;2022-10-19T09:19:28;5.43;;;2.42;;
55493;SDS011;41355;50.390;19.096;2022-10-19T09:21:56;4.15;;;1.77;;
55493;SDS011;41355;50.390;19.096;2022-10-19T09:26:54;7.30;;;2.00;;
55493;SDS011;41355;50.390;19.096;2022-10-19T09:31:46;5.78;;;2.03;;
55493;SDS011;41355;50.390;19.096;2022-10-19T09:34:24;8.82;;;2.17;;
55493;SDS011;41355;50.390;19.096;2022-10-19T09:36:54;6.20;;;2.28;;
55493;SDS011;41355;50.390;19.096;2022-10-19T09:39:22;7.28;;;3.22;;
55493;SDS011;41355;50.390;19.096;2022-10-19T09:41:53;5.28;;;2.45;;
55493;SDS011;41355;50.390;19.096;2022-10-19T09:44:20;6.53;;;2.55;;
55493;SDS011;41355;50.390;19.096;2022-10-19T09:46:47;7.03;;;2.85;;
55493;SDS011;41355;50.390;19.096;2022-10-19T09:49:19;8.65;;;2.85;;
55493;SDS011;41355;50.390;19.096;2022-10-19T09:52:02;5.97;;;3.40;;
55493;SDS011;41355;50.390;19.096;2022-10-19T09:54:35;9.60;;;4.60;;
55493;SDS011;41355;50.390;19.096;2022-10-19T09:57:02;6.78;;;3.33;;
55493;SDS011;41355;50.390;19.096;2022-10-19T09:59:30;7.78;;;3.20;;
55493;SDS011;41355;50.390;19.096;2022-10-19T10:04:36;7.63;;;2.90;;
55493;SDS011;41355;50.390;19.096;2022-10-19T10:07:02;7.75;;;2.83;;
55493;SDS011;41355;50.390;19.096;2022-10-19T10:09:28;5.35;;;2.60;;
55493;SDS011;41355;50.390;19.096;2022-10-19T10:11:56;5.95;;;2.10;;
55493;SDS011;41355;50.390;19.096;2022-10-19T10:14:27;5.43;;;1.73;;
55493;SDS011;41355;50.390;19.096;2022-10-19T10:17:17;5.07;;;2.10;;
55493;SDS011;41355;50.390;19.096;2022-10-19T10:20:00;5.32;;;1.65;;
55493;SDS011;41355;50.390;19.096;2022-10-19T10:22:29;3.50;;;1.48;;
55493;SDS011;41355;50.390;19.096;2022-10-19T10:24:55;3.78;;;1.25;;
55493;SDS011;41355;50.390;19.096;2022-10-19T10:27:45;4.43;;;1.27;;
55493;SDS011;41355;50.390;19.096;2022-10-19T10:30:14;4.85;;;1.38;;
55493;SDS011;41355;50.390;19.096;2022-10-19T10:32:44;5.32;;;1.42;;
55493;SDS011;41355;50.390;19.096;2022-10-19T10:35:16;3.35;;;1.20;;
55493;SDS011;41355;50.390;19.096;2022-10-19T10:37:46;3.95;;;1.17;;
55493;SDS011;41355;50.390;19.096;2022-10-19T10:42:44;7.22;;;1.50;;
55493;SDS011;41355;50.390;19.096;2022-10-19T10:45:45;6.72;;;1.17;;
55493;SDS011;41355;50.390;19.096;2022-10-19T10:48:09;4.00;;;1.23;;
55493;SDS011;41355;50.390;19.096;2022-10-19T10:50:37;3.17;;;1.20;;
55493;SDS011;41355;50.390;19.096;2022-10-19T10:53:04;4.05;;;1.42;;
55493;SDS011;41355;50.390;19.096;2022-10-19T10:55:31;3.85;;;1.40;;
55493;SDS011;41355;50.390;19.096;2022-10-19T10:58:05;5.15;;;1.33;;
55493;SDS011;41355;50.390;19.096;2022-10-19T11:00:34;2.58;;;1.20;;
55493;SDS011;41355;50.390;19.096;2022-10-19T11:03:11;2.20;;;0.98;;
55493;SDS011;41355;50.390;19.096;2022-10-19T11:05:39;4.03;;;1.10;;
55493;SDS011;41355;50.390;19.096;2022-10-19T11:11:01;4.60;;;1.88;;
55493;SDS011;41355;50.390;19.096;2022-10-19T11:16:14;5.22;;;1.33;;
55493;SDS011;41355;50.390;19.096;2022-10-19T11:26:06;3.65;;;1.40;;
55493;SDS011;41355;50.390;19.096;2022-10-19T11:36:48;3.97;;;1.70;;
55493;SDS011;41355;50.390;19.096;2022-10-19T11:44:54;4.47;;;1.50;;
55493;SDS011;41355;50.390;19.096;2022-10-19T11:55:01;2.50;;;0.90;;
55493;SDS011;41355;50.390;19.096;2022-10-19T12:00:31;2.90;;;0.90;;
55493;SDS011;41355;50.390;19.096;2022-10-19T12:03:03;3.88;;;1.15;;
55493;SDS011;41355;50.390;19.096;2022-10-19T12:13:10;1.65;;;0.70;;
55493;SDS011;41355;50.390;19.096;2022-10-19T12:15:38;3.10;;;1.00;;
55493;SDS011;41355;50.390;19.096;2022-10-19T12:20:56;2.22;;;1.00;;
55493;SDS011;41355;50.390;19.096;2022-10-19T12:23:24;2.90;;;0.90;;
55493;SDS011;41355;50.390;19.096;2022-10-19T12:25:52;2.55;;;0.93;;
55493;SDS011;41355;50.390;19.096;2022-10-19T12:28:21;5.38;;;1.48;;
55493;SDS011;41355;50.390;19.096;2022-10-19T12:30:48;6.15;;;1.13;;
55493;SDS011;41355;50.390;19.096;2022-10-19T12:35:51;2.70;;;1.00;;
55493;SDS011;41355;50.390;19.096;2022-10-19T12:41:06;1.10;;;0.60;;
55493;SDS011;41355;50.390;19.096;2022-10-19T12:43:41;4.05;;;1.27;;
55493;SDS011;41355;50.390;19.096;2022-10-19T12:48:35;4.60;;;1.48;;
55493;SDS011;41355;50.390;19.096;2022-10-19T12:51:04;2.35;;;0.82;;
55493;SDS011;41355;50.390;19.096;2022-10-19T12:53:32;3.33;;;1.10;;
55493;SDS011;41355;50.390;19.096;2022-10-19T13:01:28;4.25;;;1.42;;
55493;SDS011;41355;50.390;19.096;2022-10-19T13:04:05;3.47;;;1.20;;
55493;SDS011;41355;50.390;19.096;2022-10-19T13:06:33;3.95;;;1.20;;
55493;SDS011;41355;50.390;19.096;2022-10-19T13:09:00;4.18;;;1.65;;
55493;SDS011;41355;50.390;19.096;2022-10-19T13:11:27;3.95;;;1.30;;
55493;SDS011;41355;50.390;19.096;2022-10-19T13:34:49;2.92;;;0.82;;
55493;SDS011;41355;50.390;19.096;2022-10-19T13:37:15;3.42;;;1.50;;
55493;SDS011;41355;50.390;19.096;2022-10-19T13:39:43;2.20;;;1.02;;
55493;SDS011;41355;50.390;19.096;2022-10-19T13:42:25;4.20;;;1.40;;
55493;SDS011;41355;50.390;19.096;2022-10-19T13:44:52;3.90;;;1.40;;
55493;SDS011;41355;50.390;19.096;2022-10-19T13:52:41;2.33;;;0.95;;
55493;SDS011;41355;50.390;19.096;2022-10-19T14:00:12;1.88;;;0.93;;
55493;SDS011;41355;50.390;19.096;2022-10-19T14:07:56;2.63;;;1.00;;
55493;SDS011;41355;50.390;19.096;2022-10-19T14:10:26;2.28;;;0.90;;
55493;SDS011;41355;50.390;19.096;2022-10-19T14:12:53;4.35;;;1.20;;
55493;SDS011;41355;50.390;19.096;2022-10-19T14:15:20;5.85;;;1.15;;
55493;SDS011;41355;50.390;19.096;2022-10-19T14:17:46;8.82;;;2.40;;
55493;SDS011;41355;50.390;19.096;2022-10-19T14:22:51;5.95;;;1.75;;
55493;SDS011;41355;50.390;19.096;2022-10-19T14:27:44;4.32;;;1.50;;
55493;SDS011;41355;50.390;19.096;2022-10-19T14:30:20;6.65;;;2.00;;
55493;SDS011;41355;50.390;19.096;2022-10-19T14:32:47;3.45;;;1.35;;
55493;SDS011;41355;50.390;19.096;2022-10-19T14:35:20;6.75;;;2.72;;
55493;SDS011;41355;50.390;19.096;2022-10-19T14:37:47;5.47;;;2.05;;
55493;SDS011;41355;50.390;19.096;2022-10-19T14:42:51;3.03;;;1.05;;
55493;SDS011;41355;50.390;19.096;2022-10-19T14:48:17;4.15;;;1.85;;
55493;SDS011;41355;50.390;19.096;2022-10-19T14:53:22;4.32;;;1.25;;
55493;SDS011;41355;50.390;19.096;2022-10-19T14:55:52;34.35;;;10.98;;
55493;SDS011;41355;50.390;19.096;2022-10-19T14:58:21;3.88;;;1.10;;
55493;SDS011;41355;50.390;19.096;2022-10-19T15:00:48;6.43;;;1.77;;
55493;SDS011;41355;50.390;19.096;2022-10-19T15:03:39;2.67;;;0.90;;
55493;SDS011;41355;50.390;19.096;2022-10-19T15:06:02;6.25;;;1.33;;
55493;SDS011;41355;50.390;19.096;2022-10-19T15:08:31;4.28;;;0.80;;
55493;SDS011;41355;50.390;19.096;2022-10-19T15:10:57;1.73;;;0.80;;
55493;SDS011;41355;50.390;19.096;2022-10-19T15:13:26;6.00;;;1.33;;
55493;SDS011;41355;50.390;19.096;2022-10-19T15:15:53;5.22;;;1.17;;
55493;SDS011;41355;50.390;19.096;2022-10-19T15:18:21;4.00;;;1.02;;
55493;SDS011;41355;50.390;19.096;2022-10-19T15:20:58;11.18;;;3.38;;
55493;SDS011;41355;50.390;19.096;2022-10-19T15:25:57;4.00;;;1.60;;
55493;SDS011;41355;50.390;19.096;2022-10-19T15:28:34;5.15;;;1.77;;
55493;SDS011;41355;50.390;19.096;2022-10-19T15:31:02;38.83;;;14.27;;
55493;SDS011;41355;50.390;19.096;2022-10-19T15:33:29;14.93;;;6.00;;
55493;SDS011;41355;50.390;19.096;2022-10-19T15:36:05;29.13;;;11.35;;
55493;SDS011;41355;50.390;19.096;2022-10-19T15:38:31;7.15;;;2.38;;
55493;SDS011;41355;50.390;19.096;2022-10-19T15:40:59;4.80;;;1.88;;
55493;SDS011;41355;50.390;19.096;2022-10-19T15:50:53;19.13;;;6.10;;
55493;SDS011;41355;50.390;19.096;2022-10-19T15:53:19;8.00;;;2.28;;
55493;SDS011;41355;50.390;19.096;2022-10-19T15:55:46;13.18;;;2.63;;
55493;SDS011;41355;50.390;19.096;2022-10-19T15:58:12;44.60;;;18.15;;
55493;SDS011;41355;50.390;19.096;2022-10-19T16:00:58;61.92;;;25.48;;
55493;SDS011;41355;50.390;19.096;2022-10-19T16:03:24;28.20;;;12.15;;
55493;SDS011;41355;50.390;19.096;2022-10-19T16:05:50;19.67;;;10.00;;
55493;SDS011;41355;50.390;19.096;2022-10-19T16:08:16;12.00;;;5.50;;
55493;SDS011;41355;50.390;19.096;2022-10-19T16:10:42;7.93;;;3.75;;
55493;SDS011;41355;50.390;19.096;2022-10-19T16:13:08;6.18;;;2.55;;
55493;SDS011;41355;50.390;19.096;2022-10-19T16:15:34;6.40;;;2.95;;
55493;SDS011;41355;50.390;19.096;2022-10-19T16:18:00;2.78;;;0.98;;
55493;SDS011;41355;50.390;19.096;2022-10-19T16:20:27;7.57;;;3.65;;
55493;SDS011;41355;50.390;19.096;2022-10-19T16:22:53;8.07;;;2.72;;
55493;SDS011;41355;50.390;19.096;2022-10-19T16:25:19;3.10;;;1.13;;
55493;SDS011;41355;50.390;19.096;2022-10-19T16:27:45;11.75;;;6.47;;
55493;SDS011;41355;50.390;19.096;2022-10-19T16:30:11;9.93;;;4.90;;
55493;SDS011;41355;50.390;19.096;2022-10-19T16:32:37;15.40;;;6.55;;
55493;SDS011;41355;50.390;19.096;2022-10-19T16:35:04;19.65;;;8.85;;
55493;SDS011;41355;50.390;19.096;2022-10-19T16:37:32;11.07;;;5.75;;
55493;SDS011;41355;50.390;19.096;2022-10-19T16:39:59;7.03;;;3.17;;
55493;SDS011;41355;50.390;19.096;2022-10-19T16:42:25;6.20;;;2.80;;
55493;SDS011;41355;50.390;19.096;2022-10-19T16:44:51;11.63;;;5.97;;
55493;SDS011;41355;50.390;19.096;2022-10-19T16:47:18;9.00;;;3.92;;
55493;SDS011;41355;50.390;19.096;2022-10-19T16:49:44;7.88;;;3.35;;
55493;SDS011;41355;50.390;19.096;2022-10-19T16:52:13;12.23;;;6.22;;
55493;SDS011;41355;50.390;19.096;2022-10-19T16:54:39;6.80;;;2.83;;
55493;SDS011;41355;50.390;19.096;2022-10-19T16:57:05;8.68;;;2.65;;
55493;SDS011;41355;50.390;19.096;2022-10-19T16:59:31;10.07;;;4.88;;
55493;SDS011;41355;50.390;19.096;2022-10-19T17:01:57;6.07;;;2.55;;
55493;SDS011;41355;50.390;19.096;2022-10-19T17:04:23;7.93;;;2.60;;
55493;SDS011;41355;50.390;19.096;2022-10-19T17:06:50;7.70;;;2.75;;
55493;SDS011;41355;50.390;19.096;2022-10-19T17:09:16;8.10;;;2.80;;
55493;SDS011;41355;50.390;19.096;2022-10-19T17:11:42;5.55;;;2.22;;
55493;SDS011;41355;50.390;19.096;2022-10-19T17:14:09;7.00;;;2.67;;